createdAt,value
2023-03-27T00:00:38.610Z,92711.84
2023-03-27T00:01:35.386Z,92715.53
2023-03-27T00:02:32.873Z,92709.34
2023-03-27T00:03:30.565Z,92709.69
2023-03-27T00:04:28.513Z,92707.97
2023-03-27T00:05:25.554Z,92707.38
2023-03-27T00:06:24.955Z,92712.94
2023-03-27T00:07:22.656Z,92698.75
2023-03-27T00:08:21.104Z,92705.38
2023-03-27T00:09:19.198Z,92705.56
2023-03-27T00:10:16.753Z,92704.88
2023-03-27T00:11:14.942Z,92704.03
2023-03-27T00:12:11.518Z,92696.34
2023-03-27T00:13:10.043Z,92693.34
2023-03-27T00:14:06.907Z,92695.81
2023-03-27T00:15:03.766Z,92697.56
2023-03-27T00:16:01.140Z,92698.66
2023-03-27T00:17:00.265Z,92694.47
2023-03-27T00:17:58.818Z,92694.94
2023-03-27T00:18:56.405Z,92692.91
2023-03-27T00:19:53.843Z,92691.81
2023-03-27T00:20:51.738Z,92695.03
2023-03-27T00:21:48.779Z,92688.09
2023-03-27T00:22:46.006Z,92692.94
2023-03-27T00:23:42.724Z,92685.31
2023-03-27T00:24:39.378Z,92691.06
2023-03-27T00:25:36.040Z,92687.31
2023-03-27T00:26:32.777Z,92685.19
2023-03-27T00:27:29.384Z,92692.16
2023-03-27T00:28:28.674Z,92675.28
2023-03-27T00:29:25.369Z,92688.53
2023-03-27T00:30:23.397Z,92691.19
2023-03-27T00:31:20.047Z,92692.81
2023-03-27T00:32:16.851Z,92691.16
2023-03-27T00:33:14.163Z,92701.34
2023-03-27T00:34:10.801Z,92702.81
2023-03-27T00:35:09.433Z,92703.75
2023-03-27T00:36:06.533Z,92686.22
2023-03-27T00:37:05.533Z,92691.34
2023-03-27T00:38:02.124Z,92684.47
2023-03-27T00:38:58.906Z,92688.47
2023-03-27T00:39:55.818Z,92696.72
2023-03-27T00:40:55.151Z,92688.06
2023-03-27T00:41:52.154Z,92668.31
2023-03-27T00:42:51.944Z,92680.50
2023-03-27T00:43:50.088Z,92614.59
2023-03-27T00:44:46.693Z,92680.50
2023-03-27T00:45:43.740Z,92647.28
2023-03-27T00:46:42.437Z,92677.59
2023-03-27T00:47:39.686Z,92668.78
2023-03-27T00:48:37.741Z,92665.44
2023-03-27T00:49:37.434Z,92668.28
2023-03-27T00:50:41.578Z,92667.50
2023-03-27T00:51:40.602Z,92666.44
2023-03-27T00:52:41.751Z,92667.13
2023-03-27T00:53:39.129Z,92651.59
2023-03-27T00:54:41.608Z,92662.19
2023-03-27T00:55:40.037Z,92659.44
2023-03-27T00:56:38.744Z,92657.50
2023-03-27T00:57:37.008Z,92653.59
2023-03-27T00:58:53.912Z,92651.78
2023-03-27T00:59:54.292Z,92602.50
2023-03-27T01:00:54.080Z,92634.69
2023-03-27T01:01:51.383Z,92636.69
2023-03-27T01:02:50.356Z,92628.38
2023-03-27T01:03:49.063Z,92639.44
2023-03-27T01:04:46.666Z,92629.84
2023-03-27T01:05:43.663Z,92634.09
2023-03-27T01:06:42.336Z,92642.44
2023-03-27T01:07:40.427Z,92608.59
2023-03-27T01:08:37.824Z,92654.25
2023-03-27T01:09:34.478Z,92649.63
2023-03-27T01:11:15.370Z,92638.94
2023-03-27T01:12:30.799Z,92642.22
2023-03-27T01:14:06.032Z,92637.59
2023-03-27T01:15:18.567Z,92634.34
2023-03-27T01:16:27.853Z,92633.09
2023-03-27T01:17:52.434Z,92632.38
2023-03-27T01:18:53.443Z,92629.94
2023-03-27T01:20:14.020Z,92626.28
2023-03-27T01:21:32.344Z,92627.47
2023-03-27T01:22:47.318Z,92628.84
2023-03-27T01:24:25.530Z,92619.06
2023-03-27T01:25:49.660Z,92625.88
2023-03-27T01:26:58.554Z,92619.06
2023-03-27T01:28:30.317Z,92622.31
2023-03-27T01:29:36.433Z,92601.13
2023-03-27T01:30:46.491Z,92611.41
2023-03-27T01:32:07.660Z,92608.53
2023-03-27T01:33:48.510Z,92604.50
2023-03-27T01:35:02.225Z,92614.50
2023-03-27T01:36:14.941Z,92611.63
2023-03-27T01:37:30.793Z,92602.09
2023-03-27T01:38:44.544Z,92604.59
2023-03-27T01:39:41.617Z,92598.88
2023-03-27T01:40:48.701Z,92593.97
2023-03-27T01:41:51.393Z,92581.25
2023-03-27T01:43:05.535Z,92586.19
2023-03-27T01:44:15.497Z,92590.56
2023-03-27T01:45:44.612Z,92592.50
2023-03-27T01:46:52.348Z,92587.63
2023-03-27T01:48:26.875Z,92593.34
2023-03-27T01:49:30.296Z,92590.38
2023-03-27T01:50:39.114Z,92591.41
2023-03-27T01:51:39.616Z,92596.75
2023-03-27T01:52:41.343Z,92602.34
2023-03-27T01:53:42.927Z,92616.47
2023-03-27T01:54:43.725Z,92606.69
2023-03-27T01:55:47.230Z,92601.97
2023-03-27T01:57:02.461Z,92604.50
2023-03-27T01:58:14.055Z,92600.22
2023-03-27T01:59:16.489Z,92605.81
2023-03-27T02:00:19.435Z,92599.69
2023-03-27T02:01:24.068Z,92599.47
2023-03-27T02:02:28.500Z,92590.69
2023-03-27T02:03:37.010Z,92584.81
2023-03-27T02:04:42.740Z,92594.69
2023-03-27T02:05:46.972Z,92585.88
2023-03-27T02:06:48.922Z,92579.47
2023-03-27T02:07:52.401Z,92584.97
2023-03-27T02:09:13.110Z,92581.59
2023-03-27T02:10:15.470Z,92575.31
2023-03-27T02:11:12.175Z,92579.38
2023-03-27T02:12:20.206Z,92576.25
2023-03-27T02:13:22.078Z,92575.84
2023-03-27T02:14:26.507Z,92576.22
2023-03-27T02:15:30.464Z,92573.56
2023-03-27T02:16:34.148Z,92568.00
2023-03-27T02:17:34.170Z,92510.84
2023-03-27T02:18:38.477Z,92558.06
2023-03-27T02:19:42.295Z,92549.81
2023-03-27T02:20:41.131Z,92558.16
2023-03-27T02:21:37.840Z,92567.53
2023-03-27T02:22:38.163Z,92555.00
2023-03-27T02:23:38.656Z,92556.34
2023-03-27T02:24:35.216Z,92549.00
2023-03-27T02:25:39.747Z,92551.66
2023-03-27T02:26:36.694Z,92553.81
2023-03-27T02:27:45.573Z,92561.53
2023-03-27T02:29:19.867Z,92558.41
2023-03-27T02:30:44.766Z,92541.25
2023-03-27T02:31:50.492Z,92534.38
2023-03-27T02:33:06.451Z,92534.09
2023-03-27T02:34:09.102Z,92540.94
2023-03-27T02:35:27.514Z,92535.72
2023-03-27T02:36:47.366Z,92531.53
2023-03-27T02:38:09.586Z,92522.97
2023-03-27T02:39:21.739Z,92522.59
2023-03-27T02:40:42.913Z,92522.50
2023-03-27T02:42:00.062Z,92520.50
2023-03-27T02:43:06.703Z,92519.16
2023-03-27T02:44:06.316Z,92507.75
2023-03-27T02:45:15.582Z,92512.16
2023-03-27T02:46:27.467Z,92495.03
2023-03-27T02:47:34.946Z,92494.16
2023-03-27T02:48:40.306Z,92499.97
2023-03-27T02:49:43.191Z,92503.91
2023-03-27T02:50:46.839Z,92478.19
2023-03-27T02:51:50.944Z,92510.41
2023-03-27T02:52:54.071Z,92505.78
2023-03-27T02:53:55.704Z,92502.16
2023-03-27T02:55:24.048Z,92500.63
2023-03-27T02:56:24.599Z,92500.72
2023-03-27T02:57:26.722Z,92495.63
2023-03-27T02:58:36.455Z,92497.84
2023-03-27T03:00:42.094Z,92501.97
2023-03-27T03:01:40.881Z,92495.09
2023-03-27T03:02:38.135Z,92493.09
2023-03-27T03:03:53.863Z,92480.31
2023-03-27T03:04:58.122Z,92490.50
2023-03-27T03:05:56.183Z,92482.53
2023-03-27T03:06:54.247Z,92440.81
2023-03-27T03:07:54.292Z,92486.69
2023-03-27T03:08:50.932Z,92489.53
2023-03-27T03:09:48.343Z,92499.09
2023-03-27T03:10:46.055Z,92500.09
2023-03-27T03:11:50.121Z,92489.38
2023-03-27T03:12:46.847Z,92498.81
2023-03-27T03:13:43.587Z,92488.31
2023-03-27T03:14:44.211Z,92489.47
2023-03-27T03:15:41.050Z,92478.09
2023-03-27T03:16:37.801Z,92487.44
2023-03-27T03:17:35.516Z,92468.78
2023-03-27T03:18:32.183Z,92485.47
2023-03-27T03:19:28.844Z,92469.69
2023-03-27T03:20:29.546Z,92460.63
2023-03-27T03:21:26.154Z,92448.13
2023-03-27T03:22:22.801Z,92451.50
2023-03-27T03:23:23.032Z,92452.34
2023-03-27T03:24:21.884Z,92449.97
2023-03-27T03:25:19.922Z,92450.75
2023-03-27T03:26:16.846Z,92446.06
2023-03-27T03:27:14.408Z,92452.44
2023-03-27T03:28:11.122Z,92420.38
2023-03-27T03:29:07.909Z,92367.72
2023-03-27T03:30:05.868Z,92448.25
2023-03-27T03:31:05.650Z,92444.59
2023-03-27T03:32:06.417Z,92443.81
2023-03-27T03:33:03.059Z,92447.53
2023-03-27T03:33:59.786Z,92444.28
2023-03-27T03:34:57.436Z,92434.47
2023-03-27T03:35:54.168Z,92432.81
2023-03-27T03:36:50.857Z,92432.50
2023-03-27T03:37:50.762Z,92429.66
2023-03-27T03:38:48.046Z,92435.03
2023-03-27T03:39:44.700Z,92431.41
2023-03-27T03:40:41.453Z,92439.28
2023-03-27T03:41:38.211Z,92435.84
2023-03-27T03:42:34.799Z,92430.72
2023-03-27T03:43:31.874Z,92434.88
2023-03-27T03:44:28.752Z,92430.13
2023-03-27T03:45:25.391Z,92424.59
2023-03-27T03:46:22.076Z,92430.38
2023-03-27T03:47:18.720Z,92416.59
2023-03-27T03:48:15.565Z,92428.56
2023-03-27T03:49:12.217Z,92430.84
2023-03-27T03:50:09.772Z,92427.44
2023-03-27T03:51:06.440Z,92439.47
2023-03-27T03:52:04.853Z,92445.84
2023-03-27T03:53:01.779Z,92443.94
2023-03-27T03:53:58.561Z,92444.66
2023-03-27T03:54:55.500Z,92436.47
2023-03-27T03:55:53.406Z,92447.31
2023-03-27T03:56:50.087Z,92427.16
2023-03-27T03:57:50.244Z,92441.13
2023-03-27T03:58:46.844Z,92444.66
2023-03-27T03:59:43.466Z,92449.72
2023-03-27T04:00:40.215Z,92429.59
2023-03-27T04:01:36.815Z,92292.44
2023-03-27T04:02:34.046Z,92409.19
2023-03-27T04:03:32.575Z,92426.13
2023-03-27T04:04:30.578Z,92400.16
2023-03-27T04:05:27.139Z,92427.03
2023-03-27T04:06:26.694Z,92403.22
2023-03-27T04:07:23.788Z,92431.19
2023-03-27T04:08:20.382Z,92433.13
2023-03-27T04:09:17.286Z,92428.00
2023-03-27T04:10:14.328Z,92432.16
2023-03-27T04:11:11.092Z,92433.00
2023-03-27T04:12:07.803Z,92418.69
2023-03-27T04:13:04.967Z,92435.44
2023-03-27T04:14:01.562Z,92434.63
2023-03-27T04:14:58.174Z,92434.34
2023-03-27T04:15:55.461Z,92432.56
2023-03-27T04:16:52.149Z,92436.13
2023-03-27T04:17:49.055Z,92434.94
2023-03-27T04:18:46.326Z,92428.31
2023-03-27T04:19:46.357Z,92436.91
2023-03-27T04:20:42.968Z,92437.66
2023-03-27T04:21:39.718Z,92424.78
2023-03-27T04:22:38.931Z,92432.19
2023-03-27T04:23:35.513Z,92430.03
2023-03-27T04:24:32.063Z,92430.75
2023-03-27T04:25:29.562Z,92435.91
2023-03-27T04:26:27.351Z,92439.81
2023-03-27T04:27:24.080Z,92433.41
2023-03-27T04:28:21.476Z,92440.72
2023-03-27T04:29:18.109Z,92439.78
2023-03-27T04:30:15.903Z,92436.75
2023-03-27T04:31:14.286Z,92402.31
2023-03-27T04:32:11.001Z,92436.19
2023-03-27T04:33:07.710Z,92427.81
2023-03-27T04:34:04.299Z,92439.75
2023-03-27T04:35:00.985Z,92441.53
2023-03-27T04:36:06.461Z,92433.44
2023-03-27T04:37:05.031Z,92433.00
2023-03-27T04:38:02.735Z,92434.50
2023-03-27T04:38:59.764Z,92436.91
2023-03-27T04:39:56.452Z,92432.59
2023-03-27T04:40:53.012Z,92431.91
2023-03-27T04:41:49.655Z,92435.66
2023-03-27T04:42:46.561Z,92439.50
2023-03-27T04:43:43.114Z,92432.72
2023-03-27T04:44:40.569Z,92434.59
2023-03-27T04:45:37.185Z,92431.94
2023-03-27T04:46:33.803Z,92432.81
2023-03-27T04:47:30.518Z,92430.47
2023-03-27T04:48:27.259Z,92427.50
2023-03-27T04:49:24.545Z,92431.03
2023-03-27T04:50:21.446Z,92428.25
2023-03-27T04:51:18.157Z,92231.22
2023-03-27T04:52:14.757Z,92421.84
2023-03-27T04:53:11.370Z,92402.44
2023-03-27T04:54:08.206Z,92405.50
2023-03-27T04:55:06.293Z,92412.47
2023-03-27T04:56:04.051Z,92406.47
2023-03-27T04:57:03.812Z,92401.53
2023-03-27T04:58:02.448Z,92406.56
2023-03-27T04:58:59.115Z,92404.31
2023-03-27T04:59:55.795Z,92397.66
2023-03-27T05:00:56.102Z,92401.88
2023-03-27T05:01:53.090Z,92397.72
2023-03-27T05:02:54.612Z,92374.44
2023-03-27T05:03:52.180Z,92388.47
2023-03-27T05:04:48.872Z,92386.41
2023-03-27T05:05:49.778Z,92400.75
2023-03-27T05:06:46.344Z,92392.31
2023-03-27T05:07:47.326Z,92396.97
2023-03-27T05:08:43.904Z,92395.41
2023-03-27T05:09:40.498Z,92402.34
2023-03-27T05:10:37.097Z,92402.69
2023-03-27T05:11:33.709Z,92406.09
2023-03-27T05:12:30.358Z,92401.22
2023-03-27T05:13:28.571Z,92401.41
2023-03-27T05:14:25.230Z,92391.69
2023-03-27T05:15:22.081Z,92381.25
2023-03-27T05:16:18.706Z,92383.69
2023-03-27T05:17:18.264Z,92389.09
2023-03-27T05:18:16.022Z,92378.59
2023-03-27T05:19:12.663Z,92373.94
2023-03-27T05:20:12.294Z,92379.22
2023-03-27T05:21:08.961Z,92375.06
2023-03-27T05:22:05.591Z,92369.63
2023-03-27T05:23:02.472Z,92355.59
2023-03-27T05:23:59.631Z,92341.63
2023-03-27T05:24:56.244Z,92338.22
2023-03-27T05:26:00.130Z,92337.13
2023-03-27T05:26:57.684Z,92334.47
2023-03-27T05:27:54.599Z,92336.75
2023-03-27T05:28:52.580Z,92335.91
2023-03-27T05:29:49.196Z,92339.22
2023-03-27T05:30:45.850Z,92338.56
2023-03-27T05:31:42.533Z,92315.72
2023-03-27T05:32:39.760Z,92331.06
2023-03-27T05:33:36.412Z,92328.84
2023-03-27T05:34:34.879Z,92328.88
2023-03-27T05:35:31.768Z,92313.19
2023-03-27T05:36:29.896Z,92317.28
2023-03-27T05:37:27.535Z,92328.97
2023-03-27T05:38:24.720Z,92276.78
2023-03-27T05:39:22.122Z,92312.09
2023-03-27T05:40:25.251Z,92310.59
2023-03-27T05:41:21.905Z,92303.72
2023-03-27T05:42:18.980Z,92299.13
2023-03-27T05:43:15.632Z,92310.59
2023-03-27T05:44:12.325Z,92296.09
2023-03-27T05:45:09.674Z,92289.69
2023-03-27T05:46:06.402Z,92288.16
2023-03-27T05:47:03.328Z,92286.63
2023-03-27T05:48:01.689Z,92262.66
2023-03-27T05:48:59.562Z,92279.03
2023-03-27T05:49:56.193Z,92268.78
2023-03-27T05:50:52.819Z,92269.53
2023-03-27T05:51:49.484Z,92233.34
2023-03-27T05:52:46.558Z,92248.97
2023-03-27T05:53:43.209Z,92226.88
2023-03-27T05:54:39.850Z,92206.28
2023-03-27T05:55:37.353Z,92239.09
2023-03-27T05:56:33.952Z,92176.59
2023-03-27T05:57:30.653Z,92223.81
2023-03-27T05:58:27.379Z,92226.47
2023-03-27T05:59:24.014Z,92230.31
2023-03-27T06:00:27.536Z,92225.00
2023-03-27T06:01:24.238Z,92223.09
2023-03-27T06:02:22.121Z,92226.50
2023-03-27T06:03:20.328Z,92224.25
2023-03-27T06:04:18.120Z,92176.59
2023-03-27T06:05:16.031Z,92210.44
2023-03-27T06:06:12.996Z,92216.22
2023-03-27T06:07:10.335Z,92173.53
2023-03-27T06:08:11.758Z,92190.28
2023-03-27T06:09:09.728Z,92162.09
2023-03-27T06:10:13.417Z,92205.09
2023-03-27T06:11:12.569Z,92204.34
2023-03-27T06:12:10.817Z,92215.00
2023-03-27T06:13:09.676Z,92206.25
2023-03-27T06:14:06.755Z,92154.09
2023-03-27T06:15:07.871Z,92204.75
2023-03-27T06:16:05.876Z,92203.22
2023-03-27T06:17:02.715Z,92202.44
2023-03-27T06:17:59.371Z,92208.47
2023-03-27T06:18:56.233Z,92201.19
2023-03-27T06:19:52.830Z,92199.97
2023-03-27T06:20:50.126Z,92204.56
2023-03-27T06:21:46.978Z,92201.84
2023-03-27T06:22:48.525Z,92213.66
2023-03-27T06:23:45.933Z,92190.00
2023-03-27T06:24:42.736Z,92207.94
2023-03-27T06:25:39.529Z,92213.00
2023-03-27T06:26:36.129Z,92207.66
2023-03-27T06:27:32.822Z,92198.91
2023-03-27T06:28:29.853Z,92195.13
2023-03-27T06:29:29.651Z,92185.25
2023-03-27T06:30:26.942Z,92180.97
2023-03-27T06:31:23.706Z,92168.09
2023-03-27T06:32:20.312Z,92162.06
2023-03-27T06:33:17.030Z,92181.81
2023-03-27T06:34:15.189Z,92173.81
2023-03-27T06:35:14.757Z,92148.38
2023-03-27T06:36:12.446Z,92143.34
2023-03-27T06:37:10.430Z,92177.56
2023-03-27T06:38:07.161Z,92185.50
2023-03-27T06:39:05.332Z,92189.00
2023-03-27T06:40:02.274Z,92190.16
2023-03-27T06:41:00.166Z,92203.78
2023-03-27T06:41:57.231Z,92191.09
2023-03-27T06:42:56.563Z,92199.09
2023-03-27T06:43:53.180Z,92207.16
2023-03-27T06:44:50.156Z,92209.84
2023-03-27T06:45:52.046Z,92175.56
2023-03-27T06:46:48.729Z,92201.19
2023-03-27T06:47:54.686Z,92208.03
2023-03-27T06:48:52.619Z,92181.78
2023-03-27T06:49:49.229Z,92201.09
2023-03-27T06:50:48.244Z,92195.50
2023-03-27T06:51:44.797Z,92199.38
2023-03-27T06:52:41.508Z,92198.97
2023-03-27T06:53:38.331Z,92199.72
2023-03-27T06:54:35.006Z,92197.47
2023-03-27T06:55:33.548Z,92200.09
2023-03-27T06:56:30.779Z,92200.81
2023-03-27T06:57:27.342Z,92193.16
2023-03-27T06:58:24.094Z,92194.19
2023-03-27T06:59:21.494Z,92162.19
2023-03-27T07:00:20.386Z,92198.69
2023-03-27T07:01:17.264Z,92193.38
2023-03-27T07:02:13.958Z,92185.63
2023-03-27T07:03:11.942Z,92197.34
2023-03-27T07:04:08.742Z,92206.44
2023-03-27T07:05:07.422Z,92196.63
2023-03-27T07:06:04.555Z,92198.63
2023-03-27T07:07:01.195Z,92197.16
2023-03-27T07:08:03.137Z,92183.84
2023-03-27T07:09:04.881Z,92199.38
2023-03-27T07:10:01.716Z,92191.19
2023-03-27T07:11:11.215Z,92187.69
2023-03-27T07:12:09.200Z,92186.09
2023-03-27T07:13:06.427Z,92157.41
2023-03-27T07:14:03.103Z,92183.81
2023-03-27T07:14:59.746Z,92176.91
2023-03-27T07:15:56.501Z,92176.69
2023-03-27T07:16:53.182Z,92172.88
2023-03-27T07:17:53.546Z,92160.19
2023-03-27T07:18:50.202Z,92163.25
2023-03-27T07:19:46.975Z,92176.16
2023-03-27T07:20:44.197Z,92170.50
2023-03-27T07:21:40.933Z,92161.25
2023-03-27T07:22:38.855Z,92166.44
2023-03-27T07:23:35.768Z,92137.00
2023-03-27T07:24:32.296Z,92169.28
2023-03-27T07:25:36.966Z,92161.59
2023-03-27T07:26:34.311Z,92114.72
2023-03-27T07:27:31.003Z,92172.97
2023-03-27T07:28:27.805Z,92161.69
2023-03-27T07:29:24.370Z,92168.34
2023-03-27T07:30:21.166Z,92162.28
2023-03-27T07:32:29.532Z,92180.28
2023-03-27T07:33:33.173Z,92179.63
2023-03-27T07:34:30.079Z,92188.78
2023-03-27T07:35:26.759Z,92177.84
2023-03-27T07:36:23.401Z,92179.41
2023-03-27T07:37:22.750Z,92180.25
2023-03-27T07:38:19.432Z,92193.06
2023-03-27T07:39:16.292Z,92183.44
2023-03-27T07:40:29.412Z,92200.69
2023-03-27T07:41:32.519Z,92188.97
2023-03-27T07:42:29.179Z,92185.94
2023-03-27T07:43:25.804Z,92191.56
2023-03-27T07:44:22.546Z,92182.91
2023-03-27T07:45:22.174Z,92142.72
2023-03-27T07:46:18.896Z,92188.38
2023-03-27T07:47:15.710Z,92182.00
2023-03-27T07:48:18.987Z,92147.47
2023-03-27T07:49:15.734Z,92181.88
2023-03-27T07:50:15.729Z,92187.47
2023-03-27T07:51:14.083Z,92174.03
2023-03-27T07:52:11.243Z,92180.63
2023-03-27T07:53:07.932Z,92177.69
2023-03-27T07:54:04.719Z,92174.09
2023-03-27T07:55:01.727Z,92168.66
2023-03-27T07:56:01.166Z,92175.59
2023-03-27T07:56:58.448Z,92152.34
2023-03-27T07:58:01.646Z,92184.81
2023-03-27T07:59:00.108Z,92186.66
2023-03-27T07:59:57.539Z,92169.81
2023-03-27T08:00:54.469Z,92186.88
2023-03-27T08:01:51.043Z,92153.19
2023-03-27T08:02:47.667Z,92201.44
2023-03-27T08:03:44.410Z,92112.91
2023-03-27T08:04:41.804Z,92203.59
2023-03-27T08:05:38.532Z,92160.25
2023-03-27T08:06:35.241Z,92192.75
2023-03-27T08:07:32.283Z,92177.94
2023-03-27T08:08:29.452Z,92125.00
2023-03-27T08:09:27.156Z,92172.56
2023-03-27T08:10:23.951Z,92170.31
2023-03-27T08:11:30.434Z,92162.50
2023-03-27T08:12:27.891Z,92162.47
2023-03-27T08:13:24.985Z,92171.28
2023-03-27T08:14:21.647Z,92161.69
2023-03-27T08:15:18.800Z,92163.75
2023-03-27T08:16:17.641Z,92148.88
2023-03-27T08:17:16.696Z,92144.91
2023-03-27T08:18:14.338Z,92145.06
2023-03-27T08:19:12.063Z,92147.91
2023-03-27T08:20:15.518Z,92148.25
2023-03-27T08:21:13.038Z,92151.13
2023-03-27T08:22:09.654Z,92154.84
2023-03-27T08:23:06.541Z,92155.38
2023-03-27T08:24:04.930Z,92131.38
2023-03-27T08:25:01.558Z,92159.59
2023-03-27T08:26:00.677Z,92149.06
2023-03-27T08:26:57.768Z,92143.03
2023-03-27T08:27:54.428Z,92141.38
2023-03-27T08:28:54.251Z,92137.63
2023-03-27T08:29:50.916Z,92142.97
2023-03-27T08:30:47.642Z,92141.53
2023-03-27T08:31:44.311Z,92139.94
2023-03-27T08:32:42.099Z,92137.72
2023-03-27T08:33:41.931Z,92149.66
2023-03-27T08:34:38.919Z,92144.38
2023-03-27T08:35:35.770Z,92135.78
2023-03-27T08:36:32.447Z,92133.38
2023-03-27T08:37:29.052Z,92132.88
2023-03-27T08:38:28.357Z,92036.53
2023-03-27T08:39:24.995Z,92130.28
2023-03-27T08:40:28.386Z,92134.88
2023-03-27T08:41:30.664Z,92130.78
2023-03-27T08:42:40.374Z,92130.34
2023-03-27T08:43:41.416Z,92133.38
2023-03-27T08:44:38.857Z,92131.81
2023-03-27T08:45:56.768Z,92127.59
2023-03-27T08:46:59.446Z,92132.59
2023-03-27T08:48:02.361Z,92138.06
2023-03-27T08:49:22.352Z,92134.25
2023-03-27T08:50:33.060Z,92115.63
2023-03-27T08:51:41.019Z,92142.63
2023-03-27T08:52:39.520Z,92143.81
2023-03-27T08:53:57.120Z,92135.97
2023-03-27T08:55:06.877Z,92129.00
2023-03-27T08:56:03.749Z,92138.69
2023-03-27T08:57:01.425Z,92132.50
2023-03-27T08:57:58.062Z,92134.91
2023-03-27T08:58:55.304Z,92139.41
2023-03-27T08:59:59.470Z,92114.88
2023-03-27T09:01:13.917Z,92138.50
2023-03-27T09:02:18.634Z,92149.59
2023-03-27T09:03:27.659Z,92152.28
2023-03-27T09:04:40.080Z,92135.19
2023-03-27T09:05:46.917Z,92138.56
2023-03-27T09:07:00.796Z,92129.41
2023-03-27T09:08:15.672Z,92134.91
2023-03-27T09:09:32.104Z,92127.03
2023-03-27T09:10:48.675Z,92136.84
2023-03-27T09:12:11.697Z,92128.50
2023-03-27T09:13:42.513Z,92122.13
2023-03-27T09:14:42.866Z,92117.63
2023-03-27T09:15:45.370Z,92122.81
2023-03-27T09:16:49.431Z,92117.22
2023-03-27T09:17:46.464Z,92124.66
2023-03-27T09:18:58.201Z,92120.88
2023-03-27T09:20:17.913Z,92094.06
2023-03-27T09:21:22.814Z,92107.09
2023-03-27T09:22:25.866Z,92109.97
2023-03-27T09:23:34.160Z,92091.81
2023-03-27T09:24:35.509Z,92108.19
2023-03-27T09:25:36.396Z,92112.78
2023-03-27T09:26:36.524Z,92110.75
2023-03-27T09:27:36.572Z,92113.78
2023-03-27T09:29:01.600Z,92111.28
2023-03-27T09:30:16.323Z,92115.81
2023-03-27T09:31:22.606Z,92104.06
2023-03-27T09:32:19.233Z,92105.16
2023-03-27T09:33:16.203Z,92093.84
2023-03-27T09:34:17.923Z,92101.28
2023-03-27T09:35:15.485Z,92093.91
2023-03-27T09:36:12.184Z,92109.63
2023-03-27T09:37:17.693Z,92115.38
2023-03-27T09:38:36.404Z,92111.78
2023-03-27T09:39:35.569Z,92111.28
2023-03-27T09:40:44.466Z,92113.06
2023-03-27T09:41:46.584Z,92125.44
2023-03-27T09:42:44.272Z,92120.91
2023-03-27T09:43:49.072Z,92128.88
2023-03-27T09:44:50.522Z,92112.91
2023-03-27T09:45:49.239Z,92117.22
2023-03-27T09:46:49.679Z,92112.56
2023-03-27T09:48:01.509Z,92123.78
2023-03-27T09:49:19.102Z,92124.53
2023-03-27T09:50:47.493Z,92124.84
2023-03-27T09:51:58.471Z,92118.25
2023-03-27T09:53:16.973Z,92129.94
2023-03-27T09:54:16.910Z,92130.44
2023-03-27T09:55:26.593Z,92123.13
2023-03-27T09:56:23.288Z,92117.13
2023-03-27T09:57:21.180Z,92125.16
2023-03-27T09:58:25.388Z,92135.75
2023-03-27T09:59:29.088Z,92130.81
2023-03-27T10:00:31.227Z,92127.75
2023-03-27T10:01:36.359Z,92125.19
2023-03-27T10:02:32.993Z,92084.69
2023-03-27T10:03:38.972Z,92131.53
2023-03-27T10:04:36.669Z,92124.59
2023-03-27T10:05:34.444Z,92096.56
2023-03-27T10:06:41.322Z,92133.50
2023-03-27T10:07:40.563Z,92127.41
2023-03-27T10:08:46.379Z,92124.72
2023-03-27T10:09:42.973Z,92130.50
2023-03-27T10:10:45.339Z,92133.19
2023-03-27T10:11:41.969Z,92106.06
2023-03-27T10:12:39.724Z,92129.34
2023-03-27T10:13:36.689Z,92130.88
2023-03-27T10:14:38.373Z,92127.84
2023-03-27T10:15:40.514Z,92131.19
2023-03-27T10:16:41.605Z,92129.34
2023-03-27T10:17:40.006Z,92087.88
2023-03-27T10:18:43.473Z,92130.13
2023-03-27T10:19:42.158Z,92116.59
2023-03-27T10:20:50.589Z,92132.50
2023-03-27T10:21:47.218Z,92124.19
2023-03-27T10:22:54.987Z,92136.09
2023-03-27T10:23:52.502Z,92074.84
2023-03-27T10:24:49.591Z,92092.75
2023-03-27T10:25:50.814Z,92121.97
2023-03-27T10:26:49.143Z,92137.28
2023-03-27T10:27:46.640Z,92102.50
2023-03-27T10:28:49.085Z,92123.88
2023-03-27T10:29:45.800Z,92132.09
2023-03-27T10:30:42.782Z,92132.09
2023-03-27T10:31:49.906Z,92130.63
2023-03-27T10:32:53.150Z,92097.19
2023-03-27T10:33:49.805Z,92080.81
2023-03-27T10:34:58.244Z,92116.94
2023-03-27T10:35:56.934Z,92072.44
2023-03-27T10:36:57.394Z,92075.13
2023-03-27T10:37:55.136Z,92109.41
2023-03-27T10:39:13.862Z,92109.41
2023-03-27T10:40:20.283Z,92110.94
2023-03-27T10:41:28.344Z,92108.66
2023-03-27T10:42:32.351Z,92112.91
2023-03-27T10:43:33.896Z,92119.00
2023-03-27T10:44:30.597Z,92109.88
2023-03-27T10:45:27.495Z,92104.16
2023-03-27T10:46:27.932Z,92116.69
2023-03-27T10:47:27.686Z,92110.22
2023-03-27T10:48:50.578Z,92117.06
2023-03-27T10:50:01.176Z,92111.75
2023-03-27T10:51:04.272Z,92119.41
2023-03-27T10:52:19.430Z,92114.09
2023-03-27T10:53:23.154Z,92077.16
2023-03-27T10:54:32.053Z,92099.22
2023-03-27T10:55:35.082Z,92102.72
2023-03-27T10:56:45.445Z,92090.91
2023-03-27T10:57:45.970Z,92079.88
2023-03-27T10:58:49.335Z,92088.97
2023-03-27T10:59:48.925Z,92082.09
2023-03-27T11:00:52.332Z,92069.19
2023-03-27T11:01:53.392Z,92006.47
2023-03-27T11:02:52.737Z,92060.09
2023-03-27T11:04:10.351Z,92049.81
2023-03-27T11:05:13.191Z,92043.38
2023-03-27T11:06:15.425Z,92046.41
2023-03-27T11:07:41.944Z,92044.16
2023-03-27T11:08:54.335Z,92042.97
2023-03-27T11:10:02.697Z,92017.13
2023-03-27T11:11:13.599Z,92014.84
2023-03-27T11:12:14.399Z,92047.94
2023-03-27T11:13:38.297Z,92044.47
2023-03-27T11:14:44.899Z,92054.38
2023-03-27T11:15:48.065Z,92036.13
2023-03-27T11:16:50.240Z,92038.78
2023-03-27T11:17:59.162Z,91987.84
2023-03-27T11:19:01.579Z,92036.09
2023-03-27T11:20:07.560Z,92044.50
2023-03-27T11:21:13.017Z,92042.59
2023-03-27T11:22:17.175Z,92028.50
2023-03-27T11:23:22.502Z,92054.75
2023-03-27T11:24:33.839Z,92026.63
2023-03-27T11:25:41.954Z,92069.13
2023-03-27T11:26:52.553Z,92071.88
2023-03-27T11:28:18.170Z,92079.88
2023-03-27T11:29:23.057Z,92072.66
2023-03-27T11:30:38.550Z,92084.09
2023-03-27T11:31:46.178Z,92081.06
2023-03-27T11:32:43.302Z,92083.69
2023-03-27T11:34:01.999Z,92082.19
2023-03-27T11:35:13.799Z,92095.88
2023-03-27T11:37:00.018Z,92091.34
2023-03-27T11:38:06.354Z,92092.47
2023-03-27T11:39:32.158Z,92097.03
2023-03-27T11:40:35.502Z,92103.88
2023-03-27T11:41:32.585Z,92103.47
2023-03-27T11:42:32.755Z,92097.03
2023-03-27T11:43:29.644Z,92099.31
2023-03-27T11:44:30.401Z,92095.91
2023-03-27T11:45:32.663Z,92098.56
2023-03-27T11:46:47.815Z,92103.50
2023-03-27T11:47:47.353Z,92118.34
2023-03-27T11:49:10.950Z,92114.94
2023-03-27T11:50:15.869Z,92117.19
2023-03-27T11:51:26.673Z,92111.88
2023-03-27T11:52:46.810Z,92121.00
2023-03-27T11:54:02.085Z,92132.03
2023-03-27T11:55:07.620Z,92122.53
2023-03-27T11:56:19.277Z,92128.16
2023-03-27T11:57:23.654Z,92143.69
2023-03-27T11:58:44.176Z,92125.28
2023-03-27T12:00:11.711Z,92141.25
2023-03-27T12:01:12.907Z,92161.38
2023-03-27T12:02:34.773Z,92167.66
2023-03-27T12:03:43.616Z,92150.88
2023-03-27T12:04:58.395Z,92159.47
2023-03-27T12:06:14.201Z,92170.31
2023-03-27T12:07:35.259Z,92177.75
2023-03-27T12:08:48.259Z,92172.03